Repulse Bay Airport
CYUT : rendu visible

Aérodrome :











RETROUVEZ-NOUS SUR...

 
LOGIN :

S'inscrire | Disclaimer

   EN    FR    IT 

 









Légende :    VFR   VFR Marginal   IFR   IFR Intensif   IFR Très Intensif
Visi : 
Plafond : 
>= 8 km
>= 3000ft
5 à 8 km
1000 à 3000 ft
1500m à 5 km
500 à 1000 ft
800 à 1500m
200 à 500 ft
< 800m
< 200 ft
Symboles :   Orages  Brouillard  Fortes neiges  Fortes précipitations  Vent > 20 kt






- Altitude de l'aérodrome : 80 ft
- Code IATA : YUT


CYUT - Repulse Bay

DERNIER METAR :
  • 242200Z 00000KT 10SM BKN120 BKN250 M34/M38 A3007 RMK AC5CI1 SLP188

METARs EXPIRÉS :
  • 242100Z 00000KT 10SM SCT120 BKN240 M36/M40 A3006 RMK AC4CI2 SLP187
  • 242000Z VRB02KT 15SM SCT130 BKN240 M35/M39 A3007 RMK AC3CI2 SLP187
  • 241940Z 34002KT 10SM SCT130 BKN250 M36/M40 A3007 RMK AC4CI2 SLP188
  • 241900Z CCA 00000KT 10SM IC SCT150 BKN270 BKN310 M35/M39 A3007 RMK AC3CI3CC1 CC TR SLP190

TAF TAF CYUT
Valide du 24 à 19h jusqu'au 24 à 23h UTC


241838Z 2419/2423 VRB03KT P6SM IC BKN200
FM242100 VRB03KT P6SM SCT020 SCT040
TEMPO 2421/2423 P6SM IC BKN020 BKN040 RMK NXT FCST WILL BE ISSUED AT 251645Z



MET'MAP, la Météo Aéronautique d'un coup d'oeil ! - Copyright ORBIFLY Décembre 2007 - Disclaimer

ORBIFLY MET'MAP TEAM :

Programmation & Développement : Alexandra Zaïnal
Sur une idée originale de : Baudouin d'Aumeries
Assistance à la programmation : Marc-Olivier Méhu
Soutien technique & logistique : Manuel Goepfert

Contact : metmap@orbifly.com




SOURCES & CREDITS :

   NOAA       Earth
Advisory